Main page
METAR-TAF:

METAR-TAF

Airports :

Kerry Airport

Killarney, Ireland

latitude: 52-10-51N, longitude: 9-31-26W, elevation: 34 m

Current weather observation

The report was made 2 hours and 38 minutes ago, at 17:00 UTC
Wind 4 kt from the West/Northwest, varying between Southwest and North
Temperature 18°C
Humidity 68%
Pressure 1009 hPa
Visibility 10 km or more
Few clouds at a height of 3300 ft
Broken clouds at a height of 4200 ft

METAR: EIKY 141700Z 29004KT 230V360 9999 FEW033 BKN042 18/12 Q1009

Time: 20:38 (19:38 UTC)

Forecast

The report was made 2 hours and 38 minutes ago, at 17:00 UTC
Forecast valid from 14 at 18 UTC to 15 at 03 UTC
Wind 3 kt from variable directions
Visibility 10 km or more
Broken clouds at a height of 4000 ft

TAF: EIKY 141700Z 1418/1503 VRB03KT 9999 BKN040

Weather observations and forecasts of more than 4000 airports (METAR and TAF reports).

The available stations are represented by yellow and red dots on the map.

Hover mouse over dot to see the name of the station.

Then click to see weather observations and forecasts.

To change the map : click on the green buttons with a black cross to zoom in, on the green button with a dash to zoom out, or on the green arrows for adjacent maps.


METAR-TAF: